Time;durP1;ratioP1;P1;durP2;ratioP2;P2;SDS_P1;SDS_P2;PMS_P1;PMS_P2;Temp;Humidity;BMP_temperature;BMP_pressure;BME280_temperature;BME280_humidity;BME280_pressure;Samples;Min_cycle;Max_cycle;Signal;HPM_P1;HPM_P2
2023/08/27 00:00:53;;;;;;;17.58;6.78;;;;;;;;;;5060664;28;20394;-75
2023/08/27 00:03:38;;;;;;;10.80;6.97;;;;;;;;;;5075668;28;20117;-75
2023/08/27 00:06:23;;;;;;;14.13;7.65;;;;;;;;;;5075485;28;20060;-75
2023/08/27 00:09:10;;;;;;;9.30;7.15;;;;;;;;;;5075853;28;20045;-75
2023/08/27 00:11:56;;;;;;;18.15;7.30;;;;;;;;;;5075350;28;20045;-77
2023/08/27 00:14:41;;;;;;;11.57;7.63;;;;;;;;;;5075636;28;20048;-75
2023/08/27 00:17:27;;;;;;;10.02;7.80;;;;;;;;;;5075132;28;20398;-76
2023/08/27 00:20:13;;;;;;;11.43;7.88;;;;;;;;;;5075323;28;20056;-74
2023/08/27 00:22:58;;;;;;;12.70;7.78;;;;;;;;;;5075365;28;20044;-76
2023/08/27 00:25:44;;;;;;;13.13;7.63;;;;;;;;;;5075421;28;20037;-76
2023/08/27 00:28:29;;;;;;;13.50;8.77;;;;;;;;;;5060536;28;20045;-76
2023/08/27 00:31:15;;;;;;;13.77;9.20;;;;;;;;;;5067428;28;20037;-75
2023/08/27 00:34:00;;;;;;;18.98;8.90;;;;;;;;;;5066619;28;20402;-76
2023/08/27 00:36:46;;;;;;;18.17;7.55;;;;;;;;;;5075616;28;20044;-76
2023/08/27 00:39:31;;;;;;;12.25;6.95;;;;;;;;;;5075037;28;20033;-76
2023/08/27 00:42:17;;;;;;;11.38;7.05;;;;;;;;;;5067141;28;20044;-76
2023/08/27 00:45:03;;;;;;;12.10;7.30;;;;;;;;;;5069543;28;20040;-76
2023/08/27 00:47:48;;;;;;;12.20;7.32;;;;;;;;;;5066822;28;20093;-76
2023/08/27 00:50:34;;;;;;;9.23;6.50;;;;;;;;;;5074729;28;20041;-76
2023/08/27 00:53:20;;;;;;;12.93;6.53;;;;;;;;;;5074960;28;20032;-76
2023/08/27 00:56:06;;;;;;;11.70;6.63;;;;;;;;;;5081331;28;20037;-75
2023/08/27 00:58:52;;;;;;;12.18;6.80;;;;;;;;;;5074714;28;20074;-75
2023/08/27 01:01:39;;;;;;;9.13;6.53;;;;;;;;;;5074732;28;20048;-75
2023/08/27 01:04:24;;;;;;;11.70;6.70;;;;;;;;;;5074909;28;20041;-75
2023/08/27 01:07:26;;;;;;;10.40;6.45;;;;;;;;;;5066078;28;20036;-75
2023/08/27 01:10:22;;;;;;;10.15;6.75;;;;;;;;;;5066554;28;20048;-76
2023/08/27 01:13:20;;;;;;;10.98;7.13;;;;;;;;;;5074460;28;20494;-75
2023/08/27 01:16:08;;;;;;;12.15;7.25;;;;;;;;;;5066072;28;20036;-76
2023/08/27 01:18:54;;;;;;;11.50;7.30;;;;;;;;;;5074563;28;20378;-76
2023/08/27 01:21:39;;;;;;;11.88;6.35;;;;;;;;;;5065558;28;20049;-76
2023/08/27 01:24:25;;;;;;;10.90;7.40;;;;;;;;;;5074499;28;20044;-75
2023/08/27 01:27:26;;;;;;;11.00;6.70;;;;;;;;;;5065111;28;20486;-75
2023/08/27 01:30:37;;;;;;;13.23;8.95;;;;;;;;;;5065863;28;20044;-76
2023/08/27 01:33:26;;;;;;;13.05;8.85;;;;;;;;;;5063356;28;20045;-76
2023/08/27 01:36:11;;;;;;;9.43;7.95;;;;;;;;;;5065702;28;20429;-76
2023/08/27 01:38:56;;;;;;;9.23;7.25;;;;;;;;;;5073870;28;20048;-76
2023/08/27 01:41:42;;;;;;;10.85;7.18;;;;;;;;;;5065519;28;20045;-77
2023/08/27 01:44:28;;;;;;;12.18;6.95;;;;;;;;;;5065408;28;20036;-76
2023/08/27 01:47:13;;;;;;;16.73;7.32;;;;;;;;;;5072799;28;20052;-76
2023/08/27 01:49:58;;;;;;;10.50;7.45;;;;;;;;;;5064520;28;20044;-76
2023/08/27 01:52:43;;;;;;;11.07;7.40;;;;;;;;;;5073508;28;20056;-76
2023/08/27 01:55:29;;;;;;;13.82;8.27;;;;;;;;;;5064703;28;20044;-76
2023/08/27 01:58:15;;;;;;;12.07;7.55;;;;;;;;;;5071780;28;20044;-76
2023/08/27 02:01:00;;;;;;;11.20;7.70;;;;;;;;;;5073231;28;20053;-76
2023/08/27 02:03:46;;;;;;;11.38;7.20;;;;;;;;;;5057372;28;20493;-76
2023/08/27 02:06:32;;;;;;;12.85;7.22;;;;;;;;;;5073528;28;20044;-76
2023/08/27 02:09:17;;;;;;;10.93;7.18;;;;;;;;;;5074140;28;20036;-76
2023/08/27 02:12:04;;;;;;;11.30;7.00;;;;;;;;;;5060790;28;20044;-76
2023/08/27 02:14:49;;;;;;;11.80;6.30;;;;;;;;;;5065468;28;20477;-76
2023/08/27 02:17:35;;;;;;;9.82;6.13;;;;;;;;;;5073775;28;20049;-76
2023/08/27 02:20:20;;;;;;;13.45;6.78;;;;;;;;;;5065523;28;20044;-76
2023/08/27 02:23:06;;;;;;;9.15;6.60;;;;;;;;;;5065260;28;20041;-76
2023/08/27 02:25:51;;;;;;;10.25;6.65;;;;;;;;;;5064939;28;20052;-76
2023/08/27 02:28:37;;;;;;;13.45;6.53;;;;;;;;;;5065522;28;20040;-76
2023/08/27 02:31:23;;;;;;;11.65;6.82;;;;;;;;;;5073672;28;20477;-76
2023/08/27 02:34:08;;;;;;;9.32;6.72;;;;;;;;;;5073536;28;20037;-76
2023/08/27 02:36:54;;;;;;;8.70;6.60;;;;;;;;;;5065215;28;20048;-76
2023/08/27 02:39:39;;;;;;;11.48;6.68;;;;;;;;;;5067144;28;20048;-75
2023/08/27 02:42:25;;;;;;;9.80;6.88;;;;;;;;;;5069444;28;20040;-75
2023/08/27 02:45:10;;;;;;;10.63;6.60;;;;;;;;;;5069063;28;20048;-74
2023/08/27 02:47:56;;;;;;;10.77;6.68;;;;;;;;;;5068340;28;20048;-75
2023/08/27 02:50:41;;;;;;;10.65;6.82;;;;;;;;;;5069183;28;20037;-75
2023/08/27 02:53:26;;;;;;;14.05;7.32;;;;;;;;;;5068493;28;20068;-76
2023/08/27 02:56:12;;;;;;;12.30;7.20;;;;;;;;;;5069053;28;20048;-76
2023/08/27 02:58:57;;;;;;;13.68;6.50;;;;;;;;;;5069038;28;20045;-76
2023/08/27 03:01:43;;;;;;;13.85;6.97;;;;;;;;;;5068458;28;20044;-76
2023/08/27 03:04:29;;;;;;;9.18;6.25;;;;;;;;;;5068583;28;20044;-76
2023/08/27 03:07:14;;;;;;;13.77;6.95;;;;;;;;;;5068143;28;20040;-76
2023/08/27 03:09:59;;;;;;;13.98;6.78;;;;;;;;;;5076936;28;20045;-75
2023/08/27 03:12:44;;;;;;;10.90;6.80;;;;;;;;;;5077753;28;20044;-75
2023/08/27 03:15:30;;;;;;;12.02;6.82;;;;;;;;;;5068188;28;20486;-76
2023/08/27 03:18:15;;;;;;;11.10;7.00;;;;;;;;;;5068204;28;20048;-75
2023/08/27 03:21:00;;;;;;;12.65;7.28;;;;;;;;;;5077001;28;20052;-75
2023/08/27 03:23:46;;;;;;;8.13;6.45;;;;;;;;;;5076614;28;20044;-75
2023/08/27 03:26:31;;;;;;;10.50;7.00;;;;;;;;;;5068203;28;20037;-75
2023/08/27 03:29:17;;;;;;;10.60;6.57;;;;;;;;;;5068034;28;20056;-75
2023/08/27 03:32:02;;;;;;;9.05;6.47;;;;;;;;;;5068040;28;20481;-75
2023/08/27 03:34:48;;;;;;;11.05;6.70;;;;;;;;;;5068145;28;20474;-76
2023/08/27 03:37:33;;;;;;;8.95;6.45;;;;;;;;;;5067860;28;20405;-75
2023/08/27 03:40:20;;;;;;;9.40;6.80;;;;;;;;;;5076189;28;20044;-76
2023/08/27 03:43:04;;;;;;;9.77;6.20;;;;;;;;;;5062286;28;20040;-76
2023/08/27 03:45:49;;;;;;;12.18;7.22;;;;;;;;;;5067515;28;20421;-76
2023/08/27 03:48:35;;;;;;;11.73;7.28;;;;;;;;;;5067832;28;20045;-75
2023/08/27 03:51:21;;;;;;;13.77;7.10;;;;;;;;;;5067188;28;20044;-75
2023/08/27 03:54:07;;;;;;;11.52;7.35;;;;;;;;;;5067865;28;20048;-75
2023/08/27 03:56:52;;;;;;;10.13;7.00;;;;;;;;;;5075778;28;20036;-76
2023/08/27 03:59:37;;;;;;;11.77;7.35;;;;;;;;;;5067740;28;20052;-75
2023/08/27 04:02:23;;;;;;;17.75;7.22;;;;;;;;;;5068025;28;20041;-75
2023/08/27 04:05:09;;;;;;;10.40;6.90;;;;;;;;;;5067598;28;20485;-76
2023/08/27 04:07:54;;;;;;;12.75;6.97;;;;;;;;;;5067018;28;20041;-77
2023/08/27 04:10:50;;;;;;;10.85;6.57;;;;;;;;;;5067250;28;20033;-76
2023/08/27 04:13:35;;;;;;;11.50;7.43;;;;;;;;;;5061145;28;20041;-76
2023/08/27 04:16:21;;;;;;;9.65;7.00;;;;;;;;;;5061031;28;20041;-75
2023/08/27 04:19:07;;;;;;;11.07;7.30;;;;;;;;;;5054954;28;20498;-76
2023/08/27 04:21:52;;;;;;;10.73;7.00;;;;;;;;;;5055402;28;20050;-75
2023/08/27 04:24:37;;;;;;;13.50;7.13;;;;;;;;;;5060914;28;20049;-76
2023/08/27 04:27:23;;;;;;;12.90;7.10;;;;;;;;;;5060443;28;20482;-76
2023/08/27 04:30:09;;;;;;;12.43;7.70;;;;;;;;;;5046701;28;20041;-75
2023/08/27 04:32:54;;;;;;;8.35;6.40;;;;;;;;;;5060636;28;20041;-75
2023/08/27 04:35:40;;;;;;;14.73;6.55;;;;;;;;;;5060614;28;20045;-76
2023/08/27 04:38:25;;;;;;;9.32;6.95;;;;;;;;;;5060524;28;20045;-75
2023/08/27 04:41:11;;;;;;;11.13;5.93;;;;;;;;;;5046894;28;20041;-75
2023/08/27 04:43:57;;;;;;;11.95;6.10;;;;;;;;;;5055116;28;20049;-75
2023/08/27 04:46:42;;;;;;;9.05;6.38;;;;;;;;;;5054504;28;20045;-75
2023/08/27 04:49:28;;;;;;;11.30;6.38;;;;;;;;;;5046437;28;20482;-76
2023/08/27 04:52:14;;;;;;;10.73;6.15;;;;;;;;;;5054530;28;20041;-75
2023/08/27 04:55:00;;;;;;;11.65;6.90;;;;;;;;;;5046709;28;20041;-76
2023/08/27 04:57:45;;;;;;;10.05;6.72;;;;;;;;;;5060567;28;20044;-76
2023/08/27 05:00:31;;;;;;;12.68;6.97;;;;;;;;;;5054737;28;20400;-76
2023/08/27 05:03:18;;;;;;;11.02;6.75;;;;;;;;;;5045569;28;20045;-76
2023/08/27 05:06:05;;;;;;;18.65;12.18;;;;;;;;;;5045719;28;20045;-76
2023/08/27 05:08:50;;;;;;;13.40;7.97;;;;;;;;;;5060228;28;20045;-76
2023/08/27 05:11:36;;;;;;;23.75;12.40;;;;;;;;;;5063909;28;20053;-76
2023/08/27 05:14:22;;;;;;;16.25;9.82;;;;;;;;;;5066025;28;20036;-76
2023/08/27 05:17:07;;;;;;;17.02;8.02;;;;;;;;;;5066360;28;20044;-76
2023/08/27 05:19:53;;;;;;;12.35;7.90;;;;;;;;;;5066279;28;20485;-76
2023/08/27 05:22:39;;;;;;;14.70;7.95;;;;;;;;;;5065908;28;20036;-76
2023/08/27 05:25:24;;;;;;;15.45;7.97;;;;;;;;;;5065494;28;20036;-75
2023/08/27 05:28:11;;;;;;;17.10;8.82;;;;;;;;;;5073693;28;20037;-76
2023/08/27 05:30:56;;;;;;;16.77;10.55;;;;;;;;;;5074390;28;20036;-75
2023/08/27 05:33:42;;;;;;;19.88;11.32;;;;;;;;;;5073910;28;20037;-76
2023/08/27 05:36:27;;;;;;;22.33;10.07;;;;;;;;;;5065834;28;20497;-77
2023/08/27 05:39:14;;;;;;;18.90;9.63;;;;;;;;;;5073583;28;20040;-76
2023/08/27 05:41:59;;;;;;;19.13;9.82;;;;;;;;;;5079769;28;20040;-76
2023/08/27 05:44:44;;;;;;;26.05;10.60;;;;;;;;;;5073956;28;20052;-74
2023/08/27 05:47:35;;;;;;;20.60;10.88;;;;;;;;;;5065254;28;20040;-75
2023/08/27 05:50:21;;;;;;;21.38;9.82;;;;;;;;;;5070257;28;20048;-75
2023/08/27 05:53:06;;;;;;;24.98;10.65;;;;;;;;;;5072043;28;20424;-77
2023/08/27 05:55:53;;;;;;;22.52;10.07;;;;;;;;;;5066039;28;20040;-75
2023/08/27 05:58:39;;;;;;;23.80;10.50;;;;;;;;;;5065102;28;20052;-75
2023/08/27 06:01:26;;;;;;;20.70;9.60;;;;;;;;;;5065019;28;20045;-75
2023/08/27 06:04:12;;;;;;;17.85;9.45;;;;;;;;;;5064951;28;20044;-75
2023/08/27 06:06:57;;;;;;;20.73;9.55;;;;;;;;;;5073851;28;20390;-75
2023/08/27 06:09:43;;;;;;;20.98;9.82;;;;;;;;;;5064690;28;20481;-75
2023/08/27 06:12:28;;;;;;;15.00;9.32;;;;;;;;;;5060194;28;20048;-74
2023/08/27 06:15:13;;;;;;;16.88;8.45;;;;;;;;;;5065261;28;20041;-74
2023/08/27 06:18:02;;;;;;;13.88;8.10;;;;;;;;;;5064842;28;20040;-75
2023/08/27 06:20:49;;;;;;;20.90;8.60;;;;;;;;;;5073423;28;20389;-75
2023/08/27 06:23:34;;;;;;;16.98;7.88;;;;;;;;;;5073568;28;20482;-75
2023/08/27 06:26:19;;;;;;;15.68;6.93;;;;;;;;;;5064830;28;20401;-75
2023/08/27 06:29:05;;;;;;;16.42;8.27;;;;;;;;;;5064748;28;20041;-76
2023/08/27 06:31:51;;;;;;;21.77;9.43;;;;;;;;;;5065151;28;20044;-75
2023/08/27 06:34:37;;;;;;;16.58;7.60;;;;;;;;;;5065362;28;20056;-75
2023/08/27 06:37:23;;;;;;;16.80;7.30;;;;;;;;;;5064857;28;20045;-76
2023/08/27 06:40:09;;;;;;;17.58;7.85;;;;;;;;;;5064512;28;20048;-77
2023/08/27 06:42:56;;;;;;;10.57;6.22;;;;;;;;;;5051279;28;20044;-75
2023/08/27 06:45:42;;;;;;;21.23;7.07;;;;;;;;;;5064849;28;20044;-76
2023/08/27 06:48:28;;;;;;;15.98;6.43;;;;;;;;;;5064835;28;20044;-76
2023/08/27 06:51:14;;;;;;;13.82;7.38;;;;;;;;;;5064791;28;20045;-77
2023/08/27 06:53:59;;;;;;;18.63;7.32;;;;;;;;;;5073389;28;20040;-76
2023/08/27 06:56:46;;;;;;;15.30;7.10;;;;;;;;;;5064997;28;20401;-76
2023/08/27 06:59:31;;;;;;;15.85;6.60;;;;;;;;;;5064563;28;20052;-75
2023/08/27 07:02:18;;;;;;;13.82;7.38;;;;;;;;;;5064531;28;20386;-75
2023/08/27 07:05:08;;;;;;;25.92;8.70;;;;;;;;;;5072491;28;20397;-74
2023/08/27 07:07:53;;;;;;;19.23;7.63;;;;;;;;;;5064327;28;20036;-74
2023/08/27 07:10:38;;;;;;;16.40;7.45;;;;;;;;;;5064457;28;20048;-74
2023/08/27 07:13:23;;;;;;;16.85;8.07;;;;;;;;;;5064308;28;20045;-74
2023/08/27 07:16:09;;;;;;;18.45;7.70;;;;;;;;;;5072735;28;20044;-73
2023/08/27 07:18:54;;;;;;;15.38;7.30;;;;;;;;;;5064265;28;20044;-75
2023/08/27 07:21:40;;;;;;;15.65;7.63;;;;;;;;;;5064345;28;20040;-74
2023/08/27 07:24:26;;;;;;;12.82;7.05;;;;;;;;;;5064626;28;20040;-74
2023/08/27 07:27:11;;;;;;;12.48;7.28;;;;;;;;;;5067749;28;20401;-75
2023/08/27 07:29:57;;;;;;;12.18;6.55;;;;;;;;;;5067513;28;20482;-73
2023/08/27 07:32:42;;;;;;;23.25;7.63;;;;;;;;;;5067807;28;20048;-74
2023/08/27 07:35:29;;;;;;;14.88;7.00;;;;;;;;;;5053624;28;20052;-74
2023/08/27 07:38:15;;;;;;;17.02;7.45;;;;;;;;;;5067279;28;20036;-73
2023/08/27 07:41:00;;;;;;;13.68;7.10;;;;;;;;;;5067713;28;20505;-75
2023/08/27 07:43:47;;;;;;;11.57;6.25;;;;;;;;;;5067656;28;20159;-74
2023/08/27 07:46:32;;;;;;;13.13;6.78;;;;;;;;;;5067539;28;20037;-74
2023/08/27 07:49:17;;;;;;;12.00;6.63;;;;;;;;;;5067626;28;20056;-74
2023/08/27 07:52:03;;;;;;;11.88;6.70;;;;;;;;;;5067308;28;20048;-73
2023/08/27 07:54:48;;;;;;;12.60;6.75;;;;;;;;;;5067532;28;20485;-75
2023/08/27 07:57:33;;;;;;;13.02;6.90;;;;;;;;;;5081510;28;20044;-75
2023/08/27 08:00:20;;;;;;;16.02;6.70;;;;;;;;;;5067187;28;20477;-77
2023/08/27 08:03:05;;;;;;;16.45;6.82;;;;;;;;;;5067357;28;20397;-74
2023/08/27 08:05:52;;;;;;;10.75;7.20;;;;;;;;;;5075119;28;20040;-74
2023/08/27 08:08:37;;;;;;;15.90;6.97;;;;;;;;;;5075042;28;20040;-74
2023/08/27 08:11:22;;;;;;;12.00;7.20;;;;;;;;;;5074848;28;20414;-75
2023/08/27 08:14:08;;;;;;;13.32;7.78;;;;;;;;;;5075709;28;20052;-74
2023/08/27 08:16:54;;;;;;;16.85;7.90;;;;;;;;;;5075535;28;20044;-74
2023/08/27 08:19:39;;;;;;;14.85;7.38;;;;;;;;;;5060101;28;20048;-74
2023/08/27 08:22:25;;;;;;;13.40;8.15;;;;;;;;;;5075009;28;20485;-74
2023/08/27 08:25:10;;;;;;;16.45;7.72;;;;;;;;;;5074489;28;20478;-74
2023/08/27 08:27:55;;;;;;;13.63;7.90;;;;;;;;;;5073572;28;20037;-73
2023/08/27 08:30:48;;;;;;;14.27;7.72;;;;;;;;;;5075174;28;20049;-72
2023/08/27 08:33:33;;;;;;;13.18;7.78;;;;;;;;;;5059735;28;20037;-74
2023/08/27 08:36:19;;;;;;;14.25;8.27;;;;;;;;;;5073787;28;20496;-74
2023/08/27 08:39:04;;;;;;;14.48;8.60;;;;;;;;;;5074882;28;20044;-73
2023/08/27 08:42:00;;;;;;;16.60;8.15;;;;;;;;;;5075038;28;20401;-74
2023/08/27 08:45:21;;;;;;;12.75;7.57;;;;;;;;;;5074660;28;20052;-75
2023/08/27 08:48:06;;;;;;;20.17;8.25;;;;;;;;;;5074533;28;20477;-75
2023/08/27 08:50:53;;;;;;;17.10;8.40;;;;;;;;;;5074423;28;20048;-75
2023/08/27 08:53:44;;;;;;;15.05;7.72;;;;;;;;;;5074348;28;20040;-75
2023/08/27 08:56:44;;;;;;;14.07;7.82;;;;;;;;;;5081507;28;20389;-76
2023/08/27 08:59:31;;;;;;;17.83;8.40;;;;;;;;;;5081373;28;20040;-74
2023/08/27 09:02:18;;;;;;;12.38;8.38;;;;;;;;;;5074370;28;20045;-77
2023/08/27 09:05:05;;;;;;;13.07;7.68;;;;;;;;;;5074968;28;20049;-82
2023/08/27 09:07:51;;;;;;;11.60;7.57;;;;;;;;;;5081541;28;20048;-82
2023/08/27 09:10:37;;;;;;;22.15;8.38;;;;;;;;;;5075061;28;20036;-74
2023/08/27 09:13:23;;;;;;;13.85;7.30;;;;;;;;;;5074216;28;20048;-75
2023/08/27 09:16:08;;;;;;;16.95;8.27;;;;;;;;;;5074102;28;20048;-77
2023/08/27 09:18:54;;;;;;;14.45;7.43;;;;;;;;;;5073851;28;20390;-75
2023/08/27 09:21:41;;;;;;;13.30;7.47;;;;;;;;;;5073682;28;20036;-74
2023/08/27 09:24:25;;;;;;;13.38;6.90;;;;;;;;;;5073439;28;20390;-76
2023/08/27 09:27:15;;;;;;;15.95;6.78;;;;;;;;;;5078709;28;20052;-75
2023/08/27 09:30:04;;;;;;;11.90;6.78;;;;;;;;;;5080502;28;20044;-75
2023/08/27 09:32:49;;;;;;;15.27;7.32;;;;;;;;;;5073905;28;20045;-75
2023/08/27 09:35:39;;;;;;;14.63;7.68;;;;;;;;;;5072934;28;20045;-75
2023/08/27 09:38:27;;;;;;;13.07;7.05;;;;;;;;;;5073862;28;20041;-74
2023/08/27 09:41:14;;;;;;;15.65;7.65;;;;;;;;;;5073888;28;20401;-74
2023/08/27 09:43:59;;;;;;;17.33;7.40;;;;;;;;;;5073847;28;20037;-74
2023/08/27 09:46:47;;;;;;;13.77;7.68;;;;;;;;;;5073672;28;20037;-74
2023/08/27 09:49:38;;;;;;;14.95;7.70;;;;;;;;;;5073679;28;20040;-74
2023/08/27 09:52:24;;;;;;;11.90;8.27;;;;;;;;;;5073265;28;20398;-74
2023/08/27 09:55:14;;;;;;;17.73;7.90;;;;;;;;;;5073819;28;20048;-75
2023/08/27 09:58:01;;;;;;;15.60;7.15;;;;;;;;;;5073293;28;20044;-75
2023/08/27 10:00:48;;;;;;;15.07;8.38;;;;;;;;;;5073294;28;20417;-75
2023/08/27 10:03:34;;;;;;;11.23;7.70;;;;;;;;;;5072633;28;20049;-74
2023/08/27 10:06:20;;;;;;;16.77;7.93;;;;;;;;;;5073730;28;20389;-74
2023/08/27 10:09:05;;;;;;;13.55;7.63;;;;;;;;;;5073617;28;20036;-74
2023/08/27 10:11:51;;;;;;;10.00;7.35;;;;;;;;;;5072944;28;20045;-75
2023/08/27 10:14:40;;;;;;;11.07;7.72;;;;;;;;;;5073757;28;20413;-75
2023/08/27 10:17:26;;;;;;;12.18;7.63;;;;;;;;;;5079809;28;20040;-76
2023/08/27 10:20:11;;;;;;;13.18;6.95;;;;;;;;;;5079677;28;20052;-75
2023/08/27 10:22:59;;;;;;;8.57;6.43;;;;;;;;;;5073182;28;20549;-75
2023/08/27 10:25:47;;;;;;;13.43;6.10;;;;;;;;;;5072984;28;20048;-76
2023/08/27 10:28:34;;;;;;;9.23;6.75;;;;;;;;;;5073309;28;20369;-75
2023/08/27 10:31:20;;;;;;;6.70;6.00;;;;;;;;;;5079881;28;20049;-75
2023/08/27 10:34:06;;;;;;;8.57;6.32;;;;;;;;;;5073109;28;20040;-75
2023/08/27 10:36:52;;;;;;;10.25;6.97;;;;;;;;;;5064706;28;20064;-74
2023/08/27 10:39:38;;;;;;;13.85;6.53;;;;;;;;;;5064906;28;20052;-74
2023/08/27 10:42:33;;;;;;;11.50;6.72;;;;;;;;;;5079938;28;20482;-74
2023/08/27 10:45:20;;;;;;;11.95;6.65;;;;;;;;;;5073110;28;20516;-74
2023/08/27 10:48:21;;;;;;;14.15;6.70;;;;;;;;;;5073065;28;20036;-74
2023/08/27 10:51:08;;;;;;;8.43;6.57;;;;;;;;;;5057906;28;20052;-74
2023/08/27 10:53:56;;;;;;;12.60;7.07;;;;;;;;;;5079743;28;20044;-74
2023/08/27 10:56:47;;;;;;;15.10;6.82;;;;;;;;;;5072747;28;20044;-73
2023/08/27 10:59:41;;;;;;;8.60;6.43;;;;;;;;;;5072964;28;20049;-74
2023/08/27 11:02:26;;;;;;;12.10;6.70;;;;;;;;;;5076598;28;20049;-75
2023/08/27 11:05:11;;;;;;;8.65;6.78;;;;;;;;;;5083173;28;20060;-74
2023/08/27 11:08:01;;;;;;;13.48;6.68;;;;;;;;;;5076342;28;20044;-74
2023/08/27 11:10:45;;;;;;;12.23;6.18;;;;;;;;;;5076441;28;20040;-74
2023/08/27 11:13:39;;;;;;;12.98;6.65;;;;;;;;;;5056609;28;20053;-74
2023/08/27 11:16:24;;;;;;;10.00;6.70;;;;;;;;;;5063403;28;20053;-74
2023/08/27 11:19:11;;;;;;;10.68;6.50;;;;;;;;;;5055785;28;20045;-73
2023/08/27 11:22:08;;;;;;;12.57;6.65;;;;;;;;;;5056110;28;20044;-74
2023/08/27 11:24:57;;;;;;;14.50;6.97;;;;;;;;;;5061897;28;20049;-75
2023/08/27 11:27:42;;;;;;;9.63;6.57;;;;;;;;;;5047254;28;20053;-74
2023/08/27 11:30:54;;;;;;;8.40;6.53;;;;;;;;;;5058889;28;20053;-74
2023/08/27 11:33:39;;;;;;;7.88;6.40;;;;;;;;;;5056341;28;20057;-74
2023/08/27 11:36:24;;;;;;;7.65;6.40;;;;;;;;;;5056345;28;20045;-74
2023/08/27 11:39:14;;;;;;;9.50;6.53;;;;;;;;;;5062515;28;20045;-75
2023/08/27 11:41:59;;;;;;;11.05;6.65;;;;;;;;;;5056059;28;20061;-74
2023/08/27 11:44:52;;;;;;;14.63;7.20;;;;;;;;;;5062564;28;20045;-74
2023/08/27 11:47:40;;;;;;;8.65;6.88;;;;;;;;;;5055762;28;20041;-74
2023/08/27 11:50:26;;;;;;;9.35;6.55;;;;;;;;;;5041288;28;20053;-75
2023/08/27 11:53:11;;;;;;;7.95;5.75;;;;;;;;;;5056097;28;20045;-76
2023/08/27 11:55:57;;;;;;;10.38;6.10;;;;;;;;;;5062613;28;20045;-76
2023/08/27 11:58:44;;;;;;;8.65;6.70;;;;;;;;;;5062559;28;20393;-74
2023/08/27 12:01:30;;;;;;;8.55;6.50;;;;;;;;;;5055806;28;20045;-74
2023/08/27 12:04:16;;;;;;;9.05;6.20;;;;;;;;;;5055550;28;20044;-74
2023/08/27 12:07:03;;;;;;;9.82;6.28;;;;;;;;;;5056010;28;20048;-75
2023/08/27 12:09:50;;;;;;;10.02;6.05;;;;;;;;;;5055989;28;20053;-74
2023/08/27 12:12:40;;;;;;;8.43;6.03;;;;;;;;;;5069658;28;20036;-74
2023/08/27 12:15:30;;;;;;;11.80;6.13;;;;;;;;;;5075418;28;20040;-73
2023/08/27 12:18:16;;;;;;;9.30;6.20;;;;;;;;;;5075284;28;20048;-74
2023/08/27 12:21:07;;;;;;;7.63;5.72;;;;;;;;;;5075566;28;20041;-75
2023/08/27 12:23:53;;;;;;;6.38;5.55;;;;;;;;;;5081697;28;20041;-74
2023/08/27 12:26:39;;;;;;;7.68;5.95;;;;;;;;;;5075346;28;20044;-74
2023/08/27 12:29:34;;;;;;;11.88;6.00;;;;;;;;;;5075070;28;20033;-75
2023/08/27 12:32:23;;;;;;;8.57;5.93;;;;;;;;;;5075250;28;20036;-75
2023/08/27 12:35:08;;;;;;;9.02;5.65;;;;;;;;;;5081473;28;20045;-74
2023/08/27 12:37:53;;;;;;;7.82;5.63;;;;;;;;;;5075028;28;20424;-75
2023/08/27 12:40:39;;;;;;;11.35;6.60;;;;;;;;;;5074513;28;20044;-74
2023/08/27 12:43:24;;;;;;;6.90;4.82;;;;;;;;;;5074995;28;20040;-74
2023/08/27 12:46:10;;;;;;;6.78;6.07;;;;;;;;;;5074768;28;20040;-75
2023/08/27 12:48:56;;;;;;;7.68;5.60;;;;;;;;;;5081301;28;20489;-74
2023/08/27 12:51:41;;;;;;;9.32;6.38;;;;;;;;;;5074771;28;20037;-76
2023/08/27 12:54:27;;;;;;;9.25;6.35;;;;;;;;;;5065834;28;20040;-75
2023/08/27 12:57:12;;;;;;;7.72;5.57;;;;;;;;;;5081249;28;20049;-73
2023/08/27 12:59:57;;;;;;;7.47;5.40;;;;;;;;;;5074593;28;20048;-74
2023/08/27 13:02:42;;;;;;;13.18;5.85;;;;;;;;;;5081604;28;20045;-74
2023/08/27 13:05:27;;;;;;;10.60;5.97;;;;;;;;;;5066026;28;20044;-75
2023/08/27 13:08:13;;;;;;;11.57;5.78;;;;;;;;;;5074636;28;20044;-73
2023/08/27 13:10:59;;;;;;;9.05;6.00;;;;;;;;;;5074067;28;20049;-74
2023/08/27 13:13:44;;;;;;;10.60;5.93;;;;;;;;;;5074344;28;20041;-73
2023/08/27 13:16:30;;;;;;;13.57;6.18;;;;;;;;;;5074714;28;20041;-74
2023/08/27 13:19:15;;;;;;;9.80;5.55;;;;;;;;;;5074257;28;20481;-75
2023/08/27 13:22:01;;;;;;;9.18;5.80;;;;;;;;;;5074008;28;20041;-75
2023/08/27 13:24:47;;;;;;;13.20;5.70;;;;;;;;;;5080528;28;20048;-73
2023/08/27 13:27:32;;;;;;;13.07;5.70;;;;;;;;;;5059426;28;20049;-74
2023/08/27 13:30:20;;;;;;;9.65;5.93;;;;;;;;;;5080776;28;20048;-75
2023/08/27 13:33:05;;;;;;;9.02;6.32;;;;;;;;;;5074026;28;20053;-73
2023/08/27 13:35:51;;;;;;;10.07;6.07;;;;;;;;;;5073680;28;20493;-73
2023/08/27 13:38:36;;;;;;;12.32;6.18;;;;;;;;;;5073895;28;20037;-74
2023/08/27 13:41:22;;;;;;;11.02;5.93;;;;;;;;;;5073894;28;20045;-74
2023/08/27 13:44:09;;;;;;;10.13;5.93;;;;;;;;;;5074433;28;20056;-75
2023/08/27 13:46:54;;;;;;;9.15;6.60;;;;;;;;;;5073575;28;20036;-74
2023/08/27 13:49:40;;;;;;;7.68;5.43;;;;;;;;;;5073183;28;20485;-74
2023/08/27 13:52:25;;;;;;;9.15;5.50;;;;;;;;;;5065287;28;20045;-74
2023/08/27 13:55:10;;;;;;;8.02;5.57;;;;;;;;;;5080769;28;20416;-75
2023/08/27 13:57:56;;;;;;;7.80;5.85;;;;;;;;;;5073456;28;20052;-74
2023/08/27 14:00:44;;;;;;;11.68;6.38;;;;;;;;;;5073508;28;20036;-74
2023/08/27 14:03:30;;;;;;;10.57;5.30;;;;;;;;;;5073082;28;20040;-75
2023/08/27 14:06:15;;;;;;;12.75;5.78;;;;;;;;;;5073140;28;20044;-73
2023/08/27 14:09:01;;;;;;;9.90;6.10;;;;;;;;;;5072836;28;20370;-74
2023/08/27 14:11:47;;;;;;;11.35;6.35;;;;;;;;;;5077401;28;20036;-74
2023/08/27 14:15:29;;;;;;;11.52;6.00;;;;;;;;;;5073478;28;20389;-73
2023/08/27 14:18:41;;;;;;;8.82;5.68;;;;;;;;;;5058573;28;20481;-75
2023/08/27 14:21:30;;;;;;;8.70;5.45;;;;;;;;;;5073395;28;20040;-77
2023/08/27 14:24:15;;;;;;;9.38;5.78;;;;;;;;;;5073470;28;20052;-76
2023/08/27 14:27:02;;;;;;;8.82;5.90;;;;;;;;;;5073323;28;20390;-74
2023/08/27 14:29:49;;;;;;;8.15;5.47;;;;;;;;;;5073320;28;20045;-78
2023/08/27 14:32:34;;;;;;;9.55;6.10;;;;;;;;;;5073425;28;20041;-74
2023/08/27 14:35:20;;;;;;;8.23;5.90;;;;;;;;;;5075120;28;20044;-74
2023/08/27 14:38:06;;;;;;;9.05;5.43;;;;;;;;;;5077398;28;20070;-74
2023/08/27 14:40:52;;;;;;;7.00;5.38;;;;;;;;;;5078588;28;20049;-74
2023/08/27 14:43:38;;;;;;;7.47;5.70;;;;;;;;;;5077377;28;20040;-73
2023/08/27 14:46:23;;;;;;;11.95;5.60;;;;;;;;;;5077498;28;20053;-75
2023/08/27 14:49:09;;;;;;;8.25;5.68;;;;;;;;;;5076694;28;20052;-73
2023/08/27 14:52:13;;;;;;;10.23;4.88;;;;;;;;;;5076645;28;20414;-75
2023/08/27 14:55:04;;;;;;;11.68;5.97;;;;;;;;;;5077368;28;20040;-78
2023/08/27 14:57:49;;;;;;;8.30;5.85;;;;;;;;;;5076947;28;20052;-75
2023/08/27 15:01:07;;;;;;;14.23;6.03;;;;;;;;;;5061683;28;20041;-75
2023/08/27 15:03:58;;;;;;;9.35;5.97;;;;;;;;;;5076054;28;20053;-74
2023/08/27 15:06:43;;;;;;;11.35;5.95;;;;;;;;;;5083106;28;20056;-75
2023/08/27 15:09:31;;;;;;;8.45;5.43;;;;;;;;;;5076758;28;20509;-76
2023/08/27 15:12:17;;;;;;;9.93;5.78;;;;;;;;;;5075775;28;20044;-75
2023/08/27 15:15:04;;;;;;;8.95;5.65;;;;;;;;;;5076694;28;20478;-76
2023/08/27 15:17:49;;;;;;;11.35;5.63;;;;;;;;;;5083160;28;20068;-74
2023/08/27 15:20:36;;;;;;;11.02;5.53;;;;;;;;;;5076568;28;20041;-75
2023/08/27 15:23:22;;;;;;;7.10;5.10;;;;;;;;;;5077157;28;20048;-75
2023/08/27 15:26:07;;;;;;;8.75;5.70;;;;;;;;;;5083315;28;20477;-75
2023/08/27 15:28:53;;;;;;;8.75;5.47;;;;;;;;;;5083034;28;20045;-75
2023/08/27 15:31:40;;;;;;;10.75;5.28;;;;;;;;;;5076371;28;20041;-75
2023/08/27 15:34:29;;;;;;;14.60;5.32;;;;;;;;;;5083126;28;20032;-77
2023/08/27 15:37:14;;;;;;;9.15;4.95;;;;;;;;;;5083353;28;20045;-75
2023/08/27 15:40:00;;;;;;;10.43;5.55;;;;;;;;;;5075678;28;20421;-74
2023/08/27 15:42:48;;;;;;;11.27;5.82;;;;;;;;;;5067698;28;20036;-74
2023/08/27 15:45:33;;;;;;;10.93;5.05;;;;;;;;;;5075350;28;20044;-74
2023/08/27 15:48:19;;;;;;;11.98;5.80;;;;;;;;;;5082311;28;20053;-74
2023/08/27 15:51:04;;;;;;;14.23;5.50;;;;;;;;;;5076365;28;20056;-74
2023/08/27 15:53:53;;;;;;;10.30;5.32;;;;;;;;;;5075712;28;20044;-74
2023/08/27 15:56:39;;;;;;;13.05;5.10;;;;;;;;;;5075855;28;20048;-74
2023/08/27 15:59:24;;;;;;;11.32;5.03;;;;;;;;;;5076405;28;20056;-74
2023/08/27 16:02:10;;;;;;;9.43;5.03;;;;;;;;;;5074000;28;20036;-74
2023/08/27 16:04:55;;;;;;;10.45;5.07;;;;;;;;;;5075055;28;20045;-75
2023/08/27 16:07:41;;;;;;;11.85;5.40;;;;;;;;;;5075221;28;20485;-75
2023/08/27 16:10:26;;;;;;;12.82;5.32;;;;;;;;;;5081648;28;20393;-75
2023/08/27 16:13:12;;;;;;;10.60;5.32;;;;;;;;;;5073780;28;20044;-74
2023/08/27 16:15:58;;;;;;;13.57;5.70;;;;;;;;;;5075327;28;20049;-73
2023/08/27 16:18:43;;;;;;;13.57;5.53;;;;;;;;;;5080246;28;20056;-73
2023/08/27 16:21:29;;;;;;;10.57;4.82;;;;;;;;;;5075470;28;20044;-73
2023/08/27 16:24:15;;;;;;;11.15;5.15;;;;;;;;;;5075478;28;20048;-74
2023/08/27 16:27:00;;;;;;;10.80;6.03;;;;;;;;;;5067496;28;20044;-75
2023/08/27 16:29:45;;;;;;;13.25;5.45;;;;;;;;;;5080914;28;20040;-74